createdAt,value
2024-01-24T00:01:57.861Z,11.60
2024-01-24T00:04:25.837Z,11.60
2024-01-24T00:06:52.512Z,11.70
2024-01-24T00:09:19.151Z,11.70
2024-01-24T00:11:45.835Z,11.70
2024-01-24T00:14:12.506Z,11.80
2024-01-24T00:16:40.196Z,11.80
2024-01-24T00:19:06.940Z,11.80
2024-01-24T00:21:33.650Z,11.80
2024-01-24T00:24:00.353Z,11.80
2024-01-24T00:26:26.972Z,11.80
2024-01-24T00:28:53.630Z,11.80
2024-01-24T00:31:20.257Z,11.90
2024-01-24T00:33:47.047Z,11.90
2024-01-24T00:36:13.806Z,11.90
2024-01-24T00:38:40.424Z,11.90
2024-01-24T00:41:07.469Z,11.90
2024-01-24T00:43:34.204Z,12.00
2024-01-24T00:46:01.122Z,12.00
2024-01-24T00:48:27.889Z,12.00
2024-01-24T00:50:54.690Z,12.00
2024-01-24T00:53:22.206Z,12.10
2024-01-24T00:55:49.092Z,12.20
2024-01-24T00:58:15.694Z,12.10
2024-01-24T01:00:42.479Z,12.20
2024-01-24T01:03:09.656Z,12.20
2024-01-24T01:05:37.508Z,12.20
2024-01-24T01:08:05.197Z,12.20
2024-01-24T01:10:31.995Z,12.20
2024-01-24T01:12:58.767Z,12.30
2024-01-24T01:15:25.630Z,12.30
2024-01-24T01:17:52.733Z,12.30
2024-01-24T01:20:22.402Z,12.30
2024-01-24T01:22:49.276Z,12.30
2024-01-24T01:25:16.053Z,12.40
2024-01-24T01:27:42.745Z,12.40
2024-01-24T01:30:09.915Z,12.50
2024-01-24T01:32:36.750Z,12.50
2024-01-24T01:35:03.431Z,12.50
2024-01-24T01:37:30.069Z,12.60
2024-01-24T01:39:56.740Z,12.60
2024-01-24T01:42:23.654Z,12.70
2024-01-24T01:44:50.385Z,12.70
2024-01-24T01:47:18.049Z,12.60
2024-01-24T01:49:45.789Z,12.70
2024-01-24T01:52:13.539Z,12.70
2024-01-24T01:54:42.783Z,12.70
2024-01-24T01:57:11.662Z,12.60
2024-01-24T01:59:45.757Z,12.60
2024-01-24T02:02:12.510Z,12.60
2024-01-24T02:04:39.155Z,12.60
2024-01-24T02:07:06.081Z,12.60
2024-01-24T02:09:33.535Z,12.60
2024-01-24T02:12:00.151Z,12.70
2024-01-24T02:14:26.736Z,12.70
2024-01-24T02:16:53.351Z,12.70
2024-01-24T02:19:19.976Z,12.70
2024-01-24T02:21:46.671Z,12.70
2024-01-24T02:24:13.606Z,12.80
2024-01-24T02:26:40.587Z,12.80
2024-01-24T02:29:07.756Z,12.80
2024-01-24T02:31:34.342Z,12.80
2024-01-24T02:34:01.063Z,12.90
2024-01-24T02:36:28.074Z,12.90
2024-01-24T02:38:57.678Z,12.90
2024-01-24T02:41:25.611Z,13.00
2024-01-24T02:43:52.239Z,12.90
2024-01-24T02:46:18.894Z,12.90
2024-01-24T02:48:45.737Z,12.90
2024-01-24T02:51:12.476Z,12.90
2024-01-24T02:53:39.812Z,12.90
2024-01-24T02:56:06.486Z,12.90
2024-01-24T02:58:33.106Z,12.90
2024-01-24T03:00:59.795Z,12.90
2024-01-24T03:03:26.545Z,12.80
2024-01-24T03:05:53.236Z,12.90
2024-01-24T03:08:19.874Z,12.90
2024-01-24T03:10:46.531Z,12.90
2024-01-24T03:13:13.211Z,12.90
2024-01-24T03:15:39.896Z,12.90
2024-01-24T03:18:06.791Z,13.00
2024-01-24T03:20:33.421Z,13.00
2024-01-24T03:23:02.669Z,13.00
2024-01-24T03:25:30.595Z,13.00
2024-01-24T03:27:57.252Z,12.90
2024-01-24T03:30:24.352Z,12.80
2024-01-24T03:32:50.983Z,12.70
2024-01-24T03:35:17.880Z,12.70
2024-01-24T03:37:44.514Z,12.60
2024-01-24T03:40:11.494Z,12.60
2024-01-24T03:42:38.201Z,12.60
2024-01-24T03:45:05.185Z,12.60
2024-01-24T03:47:31.803Z,12.60
2024-01-24T03:49:58.433Z,12.50
2024-01-24T03:52:25.367Z,12.50
2024-01-24T03:54:52.089Z,12.50
2024-01-24T03:57:18.786Z,12.50
2024-01-24T03:59:45.506Z,12.50
2024-01-24T04:02:13.297Z,12.40
2024-01-24T04:04:40.147Z,12.40
2024-01-24T04:07:06.932Z,12.40
2024-01-24T04:09:33.859Z,12.40
2024-01-24T04:12:00.569Z,12.30
2024-01-24T04:14:27.150Z,12.40
2024-01-24T04:16:53.721Z,12.40
2024-01-24T04:19:20.438Z,12.40
2024-01-24T04:21:47.302Z,12.40
2024-01-24T04:24:14.032Z,12.40
2024-01-24T04:26:40.749Z,12.40
2024-01-24T04:29:10.639Z,12.40
2024-01-24T04:31:39.391Z,12.40
2024-01-24T04:34:06.416Z,12.30
2024-01-24T04:36:33.436Z,12.40
2024-01-24T04:39:00.505Z,12.40
2024-01-24T04:41:27.784Z,12.40
2024-01-24T04:43:54.393Z,12.40
2024-01-24T04:46:20.992Z,12.40
2024-01-24T04:48:47.699Z,12.40
2024-01-24T04:51:14.590Z,12.40
2024-01-24T04:53:41.432Z,12.40
2024-01-24T04:56:08.545Z,12.40
2024-01-24T04:58:35.325Z,12.40
2024-01-24T05:01:02.383Z,12.40
2024-01-24T05:03:29.039Z,12.40
2024-01-24T05:06:01.303Z,12.50
2024-01-24T05:08:34.060Z,12.50
2024-01-24T05:11:00.689Z,12.40
2024-01-24T05:13:27.295Z,12.40
2024-01-24T05:15:54.062Z,12.40
2024-01-24T05:18:21.175Z,12.40
2024-01-24T05:20:48.384Z,12.40
2024-01-24T05:23:15.934Z,12.40
2024-01-24T05:25:43.989Z,12.40
2024-01-24T05:28:15.060Z,12.40
2024-01-24T05:30:41.718Z,12.40
2024-01-24T05:33:08.408Z,12.40
2024-01-24T05:35:35.046Z,12.40
2024-01-24T05:38:01.637Z,12.40
2024-01-24T05:40:28.422Z,12.50
2024-01-24T05:42:55.219Z,12.50
2024-01-24T05:45:23.414Z,12.50
2024-01-24T05:47:50.277Z,12.50
2024-01-24T05:50:17.006Z,12.50
2024-01-24T05:52:44.547Z,12.50
2024-01-24T05:55:12.865Z,12.50
2024-01-24T05:57:40.787Z,12.50
2024-01-24T06:00:15.688Z,12.50
2024-01-24T06:02:44.378Z,12.50
2024-01-24T06:05:11.516Z,12.50
2024-01-24T06:10:06.529Z,12.40
2024-01-24T06:12:33.292Z,12.40
2024-01-24T06:14:59.956Z,12.30
2024-01-24T06:17:26.639Z,12.30
2024-01-24T06:19:53.348Z,12.30
2024-01-24T06:22:20.024Z,12.30
2024-01-24T06:24:47.800Z,12.20
2024-01-24T06:27:14.705Z,12.20
2024-01-24T06:30:16.488Z,12.20
2024-01-24T06:32:28.386Z,12.20
2024-01-24T06:34:55.146Z,12.30
2024-01-24T06:37:22.213Z,12.30
2024-01-24T06:39:49.210Z,12.30
2024-01-24T06:42:16.999Z,12.60
2024-01-24T06:44:45.122Z,12.60
2024-01-24T06:47:12.436Z,12.60
2024-01-24T06:49:39.143Z,12.40
2024-01-24T06:52:05.925Z,12.40
2024-01-24T06:54:36.400Z,12.30
2024-01-24T06:57:04.530Z,12.30
2024-01-24T06:59:32.784Z,12.30
2024-01-24T07:02:00.158Z,12.30
2024-01-24T07:04:27.172Z,12.30
2024-01-24T07:06:53.874Z,12.20
2024-01-24T07:09:20.575Z,12.20
2024-01-24T07:11:47.201Z,12.30
2024-01-24T07:14:16.011Z,12.20
2024-01-24T07:16:46.054Z,12.20
2024-01-24T07:19:13.005Z,12.20
2024-01-24T07:21:40.869Z,12.10
2024-01-24T07:24:08.514Z,12.10
2024-01-24T07:26:36.062Z,12.00
2024-01-24T07:29:02.770Z,12.00
2024-01-24T07:31:29.717Z,11.90
2024-01-24T07:33:56.441Z,11.90
2024-01-24T07:36:23.270Z,11.90
2024-01-24T07:38:49.903Z,11.90
2024-01-24T07:41:16.708Z,11.90
2024-01-24T07:43:44.456Z,11.90
2024-01-24T07:46:12.248Z,11.90
2024-01-24T07:48:39.260Z,11.80
2024-01-24T07:51:05.964Z,11.80
2024-01-24T07:53:32.672Z,11.80
2024-01-24T07:56:10.894Z,11.80
2024-01-24T07:58:43.916Z,11.80
2024-01-24T08:01:11.055Z,11.80
2024-01-24T08:03:39.106Z,11.70
2024-01-24T08:06:06.329Z,11.70
2024-01-24T08:08:33.240Z,11.70
2024-01-24T08:11:00.310Z,11.80
2024-01-24T08:13:27.054Z,11.80
2024-01-24T08:15:55.582Z,11.70
2024-01-24T08:18:22.471Z,11.70
2024-01-24T08:20:50.847Z,11.70
2024-01-24T08:23:17.454Z,11.70
2024-01-24T08:25:44.134Z,11.80
2024-01-24T08:28:11.212Z,11.80
2024-01-24T08:30:37.957Z,11.80
2024-01-24T08:33:05.247Z,11.80
2024-01-24T08:35:34.622Z,11.80
2024-01-24T08:38:01.212Z,11.80
2024-01-24T08:40:27.840Z,11.80
2024-01-24T08:42:55.646Z,11.80
2024-01-24T08:45:22.343Z,11.80
2024-01-24T08:47:49.096Z,12.10
2024-01-24T08:50:16.202Z,12.10
2024-01-24T08:52:42.902Z,12.20
2024-01-24T08:55:13.070Z,12.20
2024-01-24T08:57:40.159Z,12.10
2024-01-24T09:00:09.065Z,11.90
2024-01-24T09:02:36.214Z,11.80
2024-01-24T09:05:03.030Z,11.80
2024-01-24T09:07:29.884Z,11.80
2024-01-24T09:09:56.750Z,11.90
2024-01-24T09:12:23.414Z,11.90
2024-01-24T09:14:50.316Z,12.00
2024-01-24T09:17:18.679Z,12.00
2024-01-24T09:19:45.870Z,12.10
2024-01-24T09:22:12.665Z,12.10
2024-01-24T09:24:39.390Z,12.00
2024-01-24T09:27:06.133Z,11.90
2024-01-24T09:29:32.869Z,11.90
2024-01-24T09:31:59.685Z,12.00
2024-01-24T09:34:28.305Z,12.00
2024-01-24T09:36:55.995Z,12.10
2024-01-24T09:39:26.710Z,12.10
2024-01-24T09:41:53.623Z,12.00
2024-01-24T09:44:20.970Z,12.10
2024-01-24T09:46:50.899Z,12.20
2024-01-24T09:49:19.799Z,12.20
2024-01-24T09:51:49.367Z,12.20
2024-01-24T09:54:18.015Z,12.20
2024-01-24T09:56:45.868Z,12.10
2024-01-24T09:59:14.230Z,12.00
2024-01-24T10:01:41.569Z,12.00
2024-01-24T10:04:09.168Z,11.90
2024-01-24T10:06:39.788Z,11.90
2024-01-24T10:09:08.754Z,11.90
2024-01-24T10:11:36.054Z,11.90
2024-01-24T10:14:03.060Z,12.10
2024-01-24T10:16:30.009Z,12.20
2024-01-24T10:18:57.681Z,12.10
2024-01-24T10:21:26.748Z,12.10
2024-01-24T10:23:56.788Z,12.10
2024-01-24T10:26:24.103Z,12.10
2024-01-24T10:28:52.322Z,12.10
2024-01-24T10:31:22.029Z,12.10
2024-01-24T10:33:50.080Z,12.10
2024-01-24T10:36:26.211Z,12.30
2024-01-24T10:38:59.862Z,12.30
2024-01-24T10:41:32.100Z,12.40
2024-01-24T10:44:06.127Z,12.30
2024-01-24T10:46:34.407Z,12.40
2024-01-24T10:49:02.809Z,12.40
2024-01-24T10:51:31.224Z,12.40
2024-01-24T10:53:58.221Z,12.60
2024-01-24T10:56:28.428Z,12.60
2024-01-24T10:58:57.948Z,12.70
2024-01-24T11:01:25.606Z,12.70
2024-01-24T11:03:55.126Z,12.60
2024-01-24T11:06:25.426Z,12.50
2024-01-24T11:08:58.889Z,12.60
2024-01-24T11:11:28.420Z,12.70
2024-01-24T11:13:55.522Z,12.60
2024-01-24T11:16:30.285Z,12.50
2024-01-24T11:19:19.000Z,12.40
2024-01-24T11:21:45.693Z,12.30
2024-01-24T11:24:12.498Z,12.30
2024-01-24T11:26:39.051Z,12.20
2024-01-24T11:29:14.047Z,12.20
2024-01-24T11:31:43.273Z,12.20
2024-01-24T11:34:15.520Z,12.20
2024-01-24T11:36:51.617Z,12.20
2024-01-24T11:39:39.036Z,12.30
2024-01-24T11:42:35.367Z,12.30
2024-01-24T11:45:18.542Z,12.30
2024-01-24T11:47:45.927Z,12.20
2024-01-24T11:50:13.138Z,12.50
2024-01-24T11:52:40.916Z,12.50
2024-01-24T11:55:08.730Z,12.70
2024-01-24T11:57:35.556Z,12.70
2024-01-24T12:00:02.285Z,12.60
2024-01-24T12:02:29.583Z,12.50
2024-01-24T12:04:57.666Z,12.40
2024-01-24T12:07:24.679Z,12.30
2024-01-24T12:09:51.641Z,12.30
2024-01-24T12:12:19.108Z,12.20
2024-01-24T12:14:46.449Z,12.20
2024-01-24T12:17:13.661Z,12.20
2024-01-24T12:19:45.999Z,12.40
2024-01-24T12:22:13.771Z,12.50
2024-01-24T12:24:43.919Z,12.60
2024-01-24T12:27:11.614Z,12.60
2024-01-24T12:29:38.636Z,12.60
2024-01-24T12:32:07.761Z,12.40
2024-01-24T12:34:35.384Z,12.40
2024-01-24T12:37:02.179Z,12.30
2024-01-24T12:39:30.945Z,12.20
2024-01-24T12:41:57.649Z,12.20
2024-01-24T12:44:24.716Z,12.20
2024-01-24T12:46:56.951Z,12.20
2024-01-24T12:49:25.172Z,12.20
2024-01-24T12:51:53.368Z,12.20
2024-01-24T12:54:20.876Z,12.10
2024-01-24T12:56:48.925Z,12.20
2024-01-24T12:59:16.995Z,12.00
2024-01-24T13:01:43.883Z,12.00
2024-01-24T13:04:11.311Z,12.00
2024-01-24T13:06:38.333Z,12.00
2024-01-24T13:09:06.043Z,12.00
2024-01-24T13:11:33.235Z,11.90
2024-01-24T13:14:00.160Z,11.90
2024-01-24T13:16:26.996Z,11.90
2024-01-24T13:18:53.839Z,11.80
2024-01-24T13:21:20.734Z,11.90
2024-01-24T13:23:47.360Z,11.90
2024-01-24T13:26:14.062Z,11.90
2024-01-24T13:28:41.655Z,11.90
2024-01-24T13:31:08.438Z,12.00
2024-01-24T13:33:37.799Z,11.90
2024-01-24T13:36:05.403Z,11.90
2024-01-24T13:38:33.041Z,12.00
2024-01-24T13:40:59.828Z,12.00
2024-01-24T13:43:26.523Z,11.90
2024-01-24T13:45:53.290Z,11.90
2024-01-24T13:48:19.955Z,11.90
2024-01-24T13:50:46.667Z,11.80
2024-01-24T13:53:13.433Z,11.80
2024-01-24T13:55:41.013Z,11.70
2024-01-24T13:58:08.172Z,11.70
2024-01-24T14:00:34.970Z,11.70
2024-01-24T14:03:01.898Z,11.60
2024-01-24T14:05:28.773Z,11.60
2024-01-24T14:07:55.456Z,11.60
2024-01-24T14:10:22.394Z,11.60
2024-01-24T14:12:49.291Z,11.60
2024-01-24T14:15:24.693Z,11.60
2024-01-24T14:18:00.051Z,11.60
2024-01-24T14:20:26.826Z,11.60
2024-01-24T14:22:53.727Z,11.60
2024-01-24T14:25:20.837Z,11.50
2024-01-24T14:27:47.554Z,11.60
2024-01-24T14:30:14.803Z,11.60
2024-01-24T14:32:41.629Z,11.50
2024-01-24T14:35:09.027Z,11.50
2024-01-24T14:37:36.212Z,11.50
2024-01-24T14:40:03.344Z,11.50
2024-01-24T14:42:30.082Z,11.50
2024-01-24T14:44:56.749Z,11.50
2024-01-24T14:47:23.415Z,11.50
2024-01-24T14:49:50.228Z,11.40
2024-01-24T14:52:16.942Z,11.40
2024-01-24T14:54:43.577Z,11.40
2024-01-24T14:57:10.350Z,11.30
2024-01-24T14:59:37.102Z,11.30
2024-01-24T15:02:04.296Z,11.30
2024-01-24T15:04:31.055Z,11.30
2024-01-24T15:06:57.845Z,11.30
2024-01-24T15:09:24.582Z,11.30
2024-01-24T15:11:51.960Z,11.20
2024-01-24T15:14:19.196Z,11.20
2024-01-24T15:16:45.770Z,11.20
2024-01-24T15:19:12.579Z,11.20
2024-01-24T15:21:39.209Z,11.20
2024-01-24T15:24:08.429Z,11.20
2024-01-24T15:26:35.659Z,11.20
2024-01-24T15:29:04.366Z,11.10
2024-01-24T15:31:31.058Z,11.10
2024-01-24T15:33:57.915Z,11.10
2024-01-24T15:36:24.823Z,11.10
2024-01-24T15:38:52.017Z,11.00
2024-01-24T15:41:22.091Z,11.00
2024-01-24T15:43:49.170Z,11.10
2024-01-24T15:46:16.257Z,11.00
2024-01-24T15:48:43.373Z,11.00
2024-01-24T15:51:10.936Z,11.00
2024-01-24T15:53:38.110Z,11.00
2024-01-24T15:56:05.156Z,10.90
2024-01-24T15:58:31.942Z,10.90
2024-01-24T16:00:58.856Z,11.00
2024-01-24T16:03:28.576Z,10.90
2024-01-24T16:05:56.231Z,10.90
2024-01-24T16:08:24.143Z,10.90
2024-01-24T16:10:51.206Z,10.90
2024-01-24T16:13:18.057Z,10.90
2024-01-24T16:15:44.840Z,10.80
2024-01-24T16:18:11.764Z,10.80
2024-01-24T16:20:39.639Z,10.80
2024-01-24T16:23:06.758Z,10.80
2024-01-24T16:25:33.679Z,10.80
2024-01-24T16:28:00.406Z,10.80
2024-01-24T16:30:28.618Z,10.70
2024-01-24T16:32:56.721Z,10.80
2024-01-24T16:35:23.754Z,10.80
2024-01-24T16:37:50.679Z,10.80
2024-01-24T16:40:17.442Z,10.70
2024-01-24T16:42:44.199Z,10.80
2024-01-24T16:45:12.223Z,10.80
2024-01-24T16:47:39.982Z,10.70
2024-01-24T16:50:07.560Z,10.70
2024-01-24T16:52:34.576Z,10.70
2024-01-24T16:55:01.706Z,10.70
2024-01-24T16:57:28.718Z,10.70
2024-01-24T16:59:58.099Z,10.60
2024-01-24T17:02:34.153Z,10.60
2024-01-24T17:05:05.533Z,10.60
2024-01-24T17:07:32.333Z,10.70
2024-01-24T17:10:01.207Z,10.70
2024-01-24T17:12:28.857Z,10.60
2024-01-24T17:14:55.790Z,10.60
2024-01-24T17:17:22.620Z,10.50
2024-01-24T17:19:49.401Z,10.50
2024-01-24T17:22:16.645Z,10.60
2024-01-24T17:24:43.334Z,11.30
2024-01-24T17:27:10.359Z,11.30
2024-01-24T17:29:39.418Z,11.30
2024-01-24T17:32:06.408Z,11.00
2024-01-24T17:34:33.999Z,10.70
2024-01-24T17:37:00.942Z,10.70
2024-01-24T17:39:27.595Z,10.60
2024-01-24T17:41:54.499Z,10.60
2024-01-24T17:44:21.312Z,10.50
2024-01-24T17:46:47.915Z,10.50
2024-01-24T17:49:16.464Z,10.50
2024-01-24T17:51:43.584Z,10.50
2024-01-24T17:54:10.555Z,10.50
2024-01-24T17:56:37.231Z,10.50
2024-01-24T17:59:04.204Z,10.50
2024-01-24T18:01:32.474Z,10.50
2024-01-24T18:03:59.378Z,10.50
2024-01-24T18:06:26.790Z,10.40
2024-01-24T18:08:53.424Z,10.40
2024-01-24T18:11:20.139Z,10.40
2024-01-24T18:13:47.327Z,10.40
2024-01-24T18:16:14.000Z,10.40
2024-01-24T18:18:40.750Z,10.50
2024-01-24T18:21:09.260Z,10.40
2024-01-24T18:23:36.993Z,10.40
2024-01-24T18:26:03.670Z,10.40
2024-01-24T18:28:30.283Z,10.40
2024-01-24T18:30:57.409Z,10.40
2024-01-24T18:33:24.197Z,10.40
2024-01-24T18:35:50.913Z,10.40
2024-01-24T18:38:18.208Z,10.40
2024-01-24T18:40:44.885Z,10.40
2024-01-24T18:43:11.724Z,10.40
2024-01-24T18:45:38.597Z,10.40
2024-01-24T18:48:06.831Z,10.40
2024-01-24T18:50:33.620Z,10.40
2024-01-24T18:53:00.221Z,10.40
2024-01-24T18:55:26.955Z,10.40
2024-01-24T18:57:53.820Z,10.40
2024-01-24T19:00:22.349Z,10.40
2024-01-24T19:02:49.713Z,10.40
2024-01-24T19:05:23.661Z,10.40
2024-01-24T19:07:57.189Z,10.40
2024-01-24T19:10:24.418Z,10.40
2024-01-24T19:12:51.123Z,10.40
2024-01-24T19:15:18.789Z,10.40
2024-01-24T19:17:45.443Z,10.40
2024-01-24T19:20:14.733Z,10.40
2024-01-24T19:22:41.460Z,10.40
2024-01-24T19:25:09.461Z,10.40
2024-01-24T19:27:36.148Z,10.30
2024-01-24T19:30:02.922Z,10.30
2024-01-24T19:32:29.565Z,10.30
2024-01-24T19:34:56.983Z,10.30
2024-01-24T19:37:23.747Z,10.20
2024-01-24T19:39:50.553Z,10.20
2024-01-24T19:42:17.779Z,10.20
2024-01-24T19:44:44.523Z,10.20
2024-01-24T19:47:11.368Z,10.20
2024-01-24T19:49:38.317Z,10.20
2024-01-24T19:52:05.426Z,10.10
2024-01-24T19:54:32.140Z,10.10
2024-01-24T19:56:58.790Z,10.10
2024-01-24T19:59:25.681Z,10.10
2024-01-24T20:01:52.935Z,10.10
2024-01-24T20:04:20.367Z,10.10
2024-01-24T20:06:47.098Z,10.10
2024-01-24T20:09:16.695Z,10.10
2024-01-24T20:11:43.432Z,10.10
2024-01-24T20:14:10.106Z,10.10
2024-01-24T20:16:36.851Z,10.10
2024-01-24T20:19:03.728Z,10.10
2024-01-24T20:21:30.829Z,10.20
2024-01-24T20:23:58.136Z,10.10
2024-01-24T20:26:25.732Z,10.20
2024-01-24T20:28:52.848Z,10.20
2024-01-24T20:31:19.568Z,10.10
2024-01-24T20:33:46.396Z,10.20
2024-01-24T20:36:13.621Z,10.20
2024-01-24T20:38:43.261Z,10.10
2024-01-24T20:41:10.988Z,10.10
2024-01-24T20:43:41.099Z,10.10
2024-01-24T20:46:09.681Z,10.10
2024-01-24T20:48:37.768Z,10.10
2024-01-24T20:51:05.052Z,10.10
2024-01-24T20:53:31.730Z,10.10
2024-01-24T20:55:58.983Z,10.10
2024-01-24T20:58:25.993Z,10.10
2024-01-24T21:00:52.753Z,10.10
2024-01-24T21:03:20.464Z,10.10
2024-01-24T21:05:48.490Z,10.10
2024-01-24T21:08:15.263Z,10.10
2024-01-24T21:10:48.582Z,10.00
2024-01-24T21:13:22.113Z,10.00
2024-01-24T21:15:49.083Z,10.00
2024-01-24T21:18:17.375Z,10.00
2024-01-24T21:20:44.104Z,10.00
2024-01-24T21:23:11.213Z,10.00
2024-01-24T21:25:37.992Z,10.00
2024-01-24T21:28:05.059Z,10.00
2024-01-24T21:30:31.702Z,10.00
2024-01-24T21:32:58.995Z,10.00
2024-01-24T21:35:25.790Z,9.90
2024-01-24T21:37:52.418Z,9.90
2024-01-24T21:40:19.145Z,9.90
2024-01-24T21:42:45.963Z,9.90
2024-01-24T21:45:12.712Z,9.90
2024-01-24T21:47:40.734Z,9.90
2024-01-24T21:50:09.054Z,9.90
2024-01-24T21:52:36.618Z,9.80
2024-01-24T21:55:04.900Z,9.80
2024-01-24T21:57:31.647Z,9.80
2024-01-24T21:59:58.624Z,9.80
2024-01-24T22:02:25.514Z,9.80
2024-01-24T22:04:52.271Z,9.70
2024-01-24T22:07:19.131Z,9.70
2024-01-24T22:09:49.353Z,9.70
2024-01-24T22:12:17.300Z,9.70
2024-01-24T22:14:43.911Z,9.70
2024-01-24T22:17:11.124Z,9.70
2024-01-24T22:19:38.017Z,9.70
2024-01-24T22:22:04.684Z,9.70
2024-01-24T22:24:31.382Z,9.70
2024-01-24T22:26:58.058Z,9.60
2024-01-24T22:29:24.646Z,9.60
2024-01-24T22:31:51.225Z,9.70
2024-01-24T22:34:17.978Z,9.60
2024-01-24T22:36:45.171Z,9.60
2024-01-24T22:39:11.920Z,9.60
2024-01-24T22:41:44.774Z,9.60
2024-01-24T22:44:11.572Z,9.60
2024-01-24T22:46:41.647Z,9.60
2024-01-24T22:49:09.403Z,9.50
2024-01-24T22:51:36.461Z,9.50
2024-01-24T22:54:03.636Z,9.50
2024-01-24T22:56:30.661Z,9.50
2024-01-24T22:58:57.542Z,9.50
2024-01-24T23:01:24.616Z,9.60
2024-01-24T23:03:51.680Z,9.50
2024-01-24T23:06:18.961Z,9.50
2024-01-24T23:08:45.813Z,9.50
2024-01-24T23:11:12.973Z,9.50
2024-01-24T23:13:40.565Z,9.50
2024-01-24T23:16:07.471Z,9.50
2024-01-24T23:18:34.422Z,9.50
2024-01-24T23:21:01.157Z,9.50
2024-01-24T23:23:27.756Z,9.50
2024-01-24T23:25:54.364Z,9.50
2024-01-24T23:28:21.252Z,9.50
2024-01-24T23:30:48.020Z,9.50
2024-01-24T23:33:14.875Z,9.50
2024-01-24T23:35:41.695Z,9.40
2024-01-24T23:38:08.374Z,9.50
2024-01-24T23:40:34.994Z,9.50
2024-01-24T23:43:01.863Z,9.50
2024-01-24T23:45:29.248Z,9.40
2024-01-24T23:47:56.014Z,9.40
2024-01-24T23:50:23.174Z,9.40
2024-01-24T23:52:50.066Z,9.40
2024-01-24T23:55:16.986Z,9.40
2024-01-24T23:57:43.745Z,9.40
